createdAt,value
2022-12-06T00:01:08.945Z,18.92
2022-12-06T00:03:37.814Z,18.05
2022-12-06T00:06:09.613Z,19.25
2022-12-06T00:08:38.176Z,19.23
2022-12-06T00:11:07.918Z,20.00
2022-12-06T00:13:36.366Z,19.10
2022-12-06T00:16:05.503Z,19.35
2022-12-06T00:18:36.177Z,18.55
2022-12-06T00:21:09.617Z,19.25
2022-12-06T00:23:38.845Z,19.65
2022-12-06T00:26:08.012Z,19.00
2022-12-06T00:28:36.457Z,18.55
2022-12-06T00:31:06.818Z,18.52
2022-12-06T00:33:37.104Z,19.15
2022-12-06T00:36:07.148Z,19.58
2022-12-06T00:38:36.558Z,19.55
2022-12-06T00:41:06.568Z,19.58
2022-12-06T00:43:35.261Z,19.63
2022-12-06T00:46:04.486Z,19.52
2022-12-06T00:48:32.927Z,18.92
2022-12-06T00:51:02.695Z,20.60
2022-12-06T00:53:31.250Z,19.33
2022-12-06T00:55:59.607Z,20.00
2022-12-06T00:58:28.021Z,19.25
2022-12-06T01:00:56.621Z,19.88
2022-12-06T01:03:25.127Z,19.38
2022-12-06T01:05:53.546Z,18.73
2022-12-06T01:08:23.448Z,20.27
2022-12-06T01:10:55.024Z,19.10
2022-12-06T01:13:23.480Z,20.23
2022-12-06T01:15:52.017Z,19.08
2022-12-06T01:18:20.463Z,19.38
2022-12-06T01:20:49.108Z,20.00
2022-12-06T01:23:17.575Z,20.05
2022-12-06T01:25:52.634Z,20.08
2022-12-06T01:28:21.266Z,20.35
2022-12-06T01:30:49.946Z,19.77
2022-12-06T01:33:18.384Z,20.42
2022-12-06T01:35:46.917Z,19.75
2022-12-06T01:38:15.348Z,20.08
2022-12-06T01:40:45.988Z,20.17
2022-12-06T01:43:36.562Z,19.58
2022-12-06T01:46:12.462Z,20.33
2022-12-06T01:48:41.467Z,19.65
2022-12-06T01:51:10.555Z,19.70
2022-12-06T01:53:39.076Z,19.92
2022-12-06T01:56:08.530Z,19.95
2022-12-06T01:58:40.780Z,20.23
2022-12-06T02:01:09.690Z,21.25
2022-12-06T02:03:38.294Z,20.95
2022-12-06T02:06:08.370Z,20.83
2022-12-06T02:08:37.288Z,19.00
2022-12-06T02:11:05.768Z,21.10
2022-12-06T02:13:34.987Z,21.20
2022-12-06T02:16:14.954Z,19.65
2022-12-06T02:18:48.627Z,20.63
2022-12-06T02:21:22.107Z,20.65
2022-12-06T02:24:23.528Z,20.00
2022-12-06T02:26:53.082Z,20.40
2022-12-06T02:29:39.410Z,19.63
2022-12-06T02:32:11.445Z,20.77
2022-12-06T02:34:45.544Z,21.35
2022-12-06T02:37:16.072Z,20.05
2022-12-06T02:39:48.033Z,19.73
2022-12-06T02:42:18.973Z,20.17
2022-12-06T02:44:48.988Z,20.00
2022-12-06T02:47:19.885Z,19.98
2022-12-06T02:49:50.190Z,22.23
2022-12-06T02:52:19.802Z,20.48
2022-12-06T02:54:48.967Z,20.02
2022-12-06T02:57:17.483Z,19.75
2022-12-06T02:59:55.359Z,19.42
2022-12-06T03:02:25.534Z,20.58
2022-12-06T03:05:10.435Z,19.17
2022-12-06T03:07:41.728Z,19.77
2022-12-06T03:10:23.923Z,18.95
2022-12-06T03:12:57.551Z,19.48
2022-12-06T03:15:34.449Z,19.13
2022-12-06T03:18:09.520Z,18.83
2022-12-06T03:20:43.079Z,19.65
2022-12-06T03:23:14.711Z,18.75
2022-12-06T03:25:43.440Z,19.52
2022-12-06T03:28:13.091Z,19.77
2022-12-06T03:30:41.666Z,20.27
2022-12-06T03:33:11.661Z,18.95
2022-12-06T03:35:40.058Z,19.60
2022-12-06T03:38:10.380Z,19.27
2022-12-06T03:40:40.501Z,19.45
2022-12-06T03:43:08.964Z,19.10
2022-12-06T03:45:40.927Z,18.45
2022-12-06T03:48:12.347Z,18.50
2022-12-06T03:50:43.014Z,18.83
2022-12-06T03:53:11.512Z,19.13
2022-12-06T03:55:39.922Z,18.70
2022-12-06T03:58:08.261Z,19.85
2022-12-06T04:00:36.722Z,18.52
2022-12-06T04:03:05.225Z,19.10
2022-12-06T04:05:35.122Z,18.65
2022-12-06T04:08:03.676Z,18.10
2022-12-06T04:10:32.085Z,18.13
2022-12-06T04:13:03.057Z,18.20
2022-12-06T04:15:33.669Z,17.85
2022-12-06T04:18:18.621Z,17.98
2022-12-06T04:21:07.596Z,18.92
2022-12-06T04:23:37.418Z,17.50
2022-12-06T04:26:07.314Z,18.30
2022-12-06T04:28:52.922Z,18.40
2022-12-06T04:31:39.425Z,17.48
2022-12-06T04:34:25.219Z,17.70
2022-12-06T04:37:12.634Z,17.85
2022-12-06T04:39:41.093Z,17.52
2022-12-06T04:42:27.392Z,17.73
2022-12-06T04:44:55.774Z,17.77
2022-12-06T04:47:24.462Z,17.23
2022-12-06T04:49:53.467Z,18.15
2022-12-06T04:52:23.370Z,17.33
2022-12-06T04:54:51.859Z,17.83
2022-12-06T04:57:20.361Z,16.98
2022-12-06T04:59:49.452Z,17.17
2022-12-06T05:02:17.928Z,15.73
2022-12-06T05:04:46.424Z,16.85
2022-12-06T05:07:14.908Z,16.88
2022-12-06T05:09:44.799Z,16.30
2022-12-06T05:12:13.189Z,16.85
2022-12-06T05:14:41.597Z,17.23
2022-12-06T05:17:10.128Z,16.48
2022-12-06T05:19:38.524Z,16.25
2022-12-06T05:22:07.027Z,16.13
2022-12-06T05:24:35.791Z,16.55
2022-12-06T05:27:05.690Z,16.40
2022-12-06T05:29:34.184Z,16.13
2022-12-06T05:32:02.706Z,15.30
2022-12-06T05:34:31.146Z,15.75
2022-12-06T05:36:59.553Z,16.48
2022-12-06T05:39:29.340Z,15.30
2022-12-06T05:41:57.743Z,16.88
2022-12-06T05:44:27.547Z,15.98
2022-12-06T05:46:56.279Z,14.38
2022-12-06T05:49:24.700Z,16.25
2022-12-06T05:51:53.100Z,16.02
2022-12-06T05:54:21.768Z,15.95
2022-12-06T05:56:50.760Z,15.18
2022-12-06T05:59:19.208Z,16.00
2022-12-06T06:01:49.224Z,16.20
2022-12-06T06:04:17.637Z,15.18
2022-12-06T06:06:45.988Z,15.63
2022-12-06T06:09:14.613Z,15.38
2022-12-06T06:11:43.042Z,14.82
2022-12-06T06:14:11.685Z,14.65
2022-12-06T06:16:40.196Z,13.85
2022-12-06T06:19:09.981Z,15.10
2022-12-06T06:21:38.337Z,14.35
2022-12-06T06:24:08.015Z,15.35
2022-12-06T06:26:36.409Z,15.23
2022-12-06T06:29:04.897Z,14.07
2022-12-06T06:31:33.385Z,14.10
2022-12-06T06:34:01.901Z,15.10
2022-12-06T06:36:31.761Z,15.00
2022-12-06T06:39:00.269Z,13.27
2022-12-06T06:41:28.645Z,15.38
2022-12-06T06:43:58.792Z,14.30
2022-12-06T06:46:27.445Z,14.98
2022-12-06T06:48:55.817Z,14.13
2022-12-06T06:51:24.387Z,14.02
2022-12-06T06:53:54.128Z,13.82
2022-12-06T06:56:22.444Z,13.95
2022-12-06T06:58:51.298Z,13.75
2022-12-06T07:01:22.192Z,15.02
2022-12-06T07:03:50.930Z,14.13
2022-12-06T07:06:19.338Z,14.55
2022-12-06T07:08:47.976Z,13.95
2022-12-06T07:11:17.743Z,13.27
2022-12-06T07:13:51.249Z,14.20
2022-12-06T07:16:21.294Z,13.30
2022-12-06T07:18:49.762Z,13.40
2022-12-06T07:21:18.313Z,14.32
2022-12-06T07:23:46.871Z,13.23
2022-12-06T07:26:18.459Z,14.43
2022-12-06T07:28:48.051Z,13.30
2022-12-06T07:31:18.324Z,14.32
2022-12-06T07:33:47.057Z,14.95
2022-12-06T07:36:16.443Z,16.15
2022-12-06T07:38:44.993Z,16.15
2022-12-06T07:41:32.186Z,15.00
2022-12-06T07:44:20.621Z,15.48
2022-12-06T07:46:50.030Z,15.40
2022-12-06T07:49:19.120Z,16.58
2022-12-06T07:51:47.651Z,15.23
2022-12-06T07:54:16.774Z,18.00
2022-12-06T07:56:45.353Z,18.58
2022-12-06T07:59:15.367Z,18.08
2022-12-06T08:01:43.884Z,23.35
2022-12-06T08:04:12.523Z,24.02
2022-12-06T08:06:41.118Z,20.88
2022-12-06T08:09:09.919Z,17.08
2022-12-06T08:11:38.368Z,17.92
2022-12-06T08:14:06.968Z,19.95
2022-12-06T08:16:36.738Z,19.15
2022-12-06T08:19:05.191Z,20.70
2022-12-06T08:21:33.823Z,22.92
2022-12-06T08:24:04.256Z,19.90
2022-12-06T08:26:32.643Z,19.52
2022-12-06T08:29:02.274Z,18.02
2022-12-06T08:31:31.559Z,18.98
2022-12-06T08:34:01.329Z,18.20
2022-12-06T08:36:29.780Z,18.25
2022-12-06T08:38:59.846Z,17.75
2022-12-06T08:41:45.547Z,18.40
2022-12-06T08:44:15.266Z,17.02
2022-12-06T08:46:43.819Z,16.55
2022-12-06T08:49:13.968Z,17.55
2022-12-06T08:51:42.637Z,16.30
2022-12-06T08:54:14.229Z,16.73
2022-12-06T08:56:42.794Z,18.00
2022-12-06T08:59:11.376Z,17.48
2022-12-06T09:01:40.107Z,15.98
2022-12-06T09:04:09.798Z,16.88
2022-12-06T09:06:40.954Z,16.65
2022-12-06T09:09:10.070Z,15.35
2022-12-06T09:11:38.997Z,16.15
2022-12-06T09:14:09.198Z,16.05
2022-12-06T09:16:38.059Z,16.50
2022-12-06T09:19:06.536Z,16.05
2022-12-06T09:21:35.135Z,15.85
2022-12-06T09:24:05.431Z,16.30
2022-12-06T09:26:34.143Z,15.63
2022-12-06T09:29:02.594Z,15.88
2022-12-06T09:31:31.182Z,15.70
2022-12-06T09:33:59.650Z,15.32
2022-12-06T09:36:29.002Z,15.65
2022-12-06T09:39:00.815Z,15.38
2022-12-06T09:41:54.932Z,15.45
2022-12-06T09:44:39.659Z,15.20
2022-12-06T09:47:16.573Z,15.15
2022-12-06T09:49:50.185Z,15.27
2022-12-06T09:52:34.654Z,14.73
2022-12-06T09:55:16.980Z,14.65
2022-12-06T09:57:51.530Z,14.40
2022-12-06T10:00:23.171Z,15.20
2022-12-06T10:03:29.130Z,14.93
2022-12-06T10:06:02.888Z,13.95
2022-12-06T10:09:10.070Z,13.70
2022-12-06T10:11:56.744Z,13.95
2022-12-06T10:14:39.220Z,14.30
2022-12-06T10:17:13.403Z,14.10
2022-12-06T10:19:51.740Z,14.00
2022-12-06T10:22:26.449Z,14.95
2022-12-06T10:25:00.977Z,14.32
2022-12-06T10:27:35.581Z,13.02
2022-12-06T10:30:06.689Z,14.48
2022-12-06T10:32:51.485Z,13.73
2022-12-06T10:35:26.008Z,13.73
2022-12-06T10:38:05.062Z,13.43
2022-12-06T10:40:46.424Z,14.20
2022-12-06T10:43:18.884Z,12.95
2022-12-06T10:46:14.311Z,13.88
2022-12-06T10:48:45.470Z,13.40
2022-12-06T10:51:16.360Z,13.43
2022-12-06T10:53:48.259Z,13.50
2022-12-06T10:56:18.510Z,14.18
2022-12-06T10:58:50.593Z,14.10
2022-12-06T11:01:21.457Z,12.88
2022-12-06T11:03:57.040Z,13.35
2022-12-06T11:06:32.323Z,13.20
2022-12-06T11:09:06.037Z,13.07
2022-12-06T11:11:36.461Z,12.32
2022-12-06T11:14:07.698Z,12.95
2022-12-06T11:16:40.392Z,12.68
2022-12-06T11:19:20.673Z,12.35
2022-12-06T11:21:53.624Z,12.55
2022-12-06T11:24:26.846Z,12.75
2022-12-06T11:27:00.351Z,12.45
2022-12-06T11:29:29.212Z,12.55
2022-12-06T11:32:00.879Z,12.73
2022-12-06T11:34:32.773Z,12.38
2022-12-06T11:37:01.287Z,11.77
2022-12-06T11:39:30.139Z,12.05
2022-12-06T11:42:00.793Z,12.13
2022-12-06T11:44:44.950Z,11.43
2022-12-06T11:47:21.834Z,11.82
2022-12-06T11:49:51.093Z,11.40
2022-12-06T11:52:23.234Z,12.02
2022-12-06T11:54:55.822Z,11.68
2022-12-06T11:57:26.770Z,12.05
2022-12-06T12:00:18.017Z,11.00
2022-12-06T12:02:49.566Z,11.52
2022-12-06T12:05:22.432Z,11.43
2022-12-06T12:07:55.397Z,10.90
2022-12-06T12:10:34.653Z,11.60
2022-12-06T12:13:36.151Z,10.90
2022-12-06T12:16:07.430Z,10.90
2022-12-06T12:18:38.640Z,10.45
2022-12-06T12:21:07.783Z,11.02
2022-12-06T12:23:39.498Z,10.32
2022-12-06T12:26:13.457Z,10.23
2022-12-06T12:28:42.155Z,10.63
2022-12-06T12:31:11.953Z,10.32
2022-12-06T12:33:41.883Z,10.73
2022-12-06T12:36:16.636Z,9.90
2022-12-06T12:38:52.132Z,10.05
2022-12-06T12:41:29.756Z,11.15
2022-12-06T12:44:28.820Z,11.38
2022-12-06T12:46:52.359Z,10.55
2022-12-06T12:49:30.282Z,10.32
2022-12-06T12:51:59.105Z,9.98
2022-12-06T12:54:32.812Z,10.13
2022-12-06T12:57:02.639Z,10.40
2022-12-06T12:59:36.789Z,9.93
2022-12-06T13:02:12.823Z,9.70
2022-12-06T13:04:44.438Z,10.80
2022-12-06T13:07:18.893Z,10.13
2022-12-06T13:09:54.766Z,9.82
2022-12-06T13:12:29.337Z,9.75
2022-12-06T13:15:01.612Z,9.88
2022-12-06T13:17:30.584Z,9.27
2022-12-06T13:20:00.892Z,9.88
2022-12-06T13:22:32.305Z,9.63
2022-12-06T13:25:02.960Z,9.15
2022-12-06T13:27:35.168Z,9.73
2022-12-06T13:30:05.986Z,9.95
2022-12-06T13:32:38.896Z,9.80
2022-12-06T13:35:19.301Z,9.13
2022-12-06T13:37:53.245Z,10.68
2022-12-06T13:40:49.556Z,10.10
2022-12-06T13:44:00.433Z,8.63
2022-12-06T13:46:33.723Z,9.18
2022-12-06T13:49:21.964Z,8.60
2022-12-06T13:51:51.857Z,9.38
2022-12-06T13:54:38.138Z,9.40
2022-12-06T13:57:27.312Z,9.63
2022-12-06T13:59:55.944Z,9.35
2022-12-06T14:02:51.683Z,8.82
2022-12-06T14:06:05.995Z,8.60
2022-12-06T14:08:40.770Z,9.45
2022-12-06T14:11:20.677Z,9.07
2022-12-06T14:13:50.820Z,9.40
2022-12-06T14:16:23.531Z,9.13
2022-12-06T14:18:52.131Z,8.80
2022-12-06T14:21:27.566Z,8.25
2022-12-06T14:23:57.600Z,8.50
2022-12-06T14:26:27.514Z,8.65
2022-12-06T14:28:57.210Z,8.43
2022-12-06T14:31:29.326Z,8.10
2022-12-06T14:33:58.112Z,8.57
2022-12-06T14:36:29.526Z,8.15
2022-12-06T14:39:02.696Z,8.20
2022-12-06T14:41:51.506Z,8.70
2022-12-06T14:44:20.787Z,7.68
2022-12-06T14:46:50.176Z,8.68
2022-12-06T14:49:38.882Z,8.43
2022-12-06T14:52:25.556Z,8.05
2022-12-06T14:55:17.654Z,8.23
2022-12-06T14:57:47.252Z,7.75
2022-12-06T15:00:26.477Z,8.55
2022-12-06T15:03:29.246Z,7.63
2022-12-06T15:06:14.089Z,8.27
2022-12-06T15:08:43.155Z,8.32
2022-12-06T15:11:48.957Z,7.80
2022-12-06T15:14:19.090Z,7.90
2022-12-06T15:16:57.273Z,8.10
2022-12-06T15:19:25.888Z,8.15
2022-12-06T15:21:54.607Z,7.72
2022-12-06T15:24:24.214Z,7.40
2022-12-06T15:26:54.227Z,7.40
2022-12-06T15:29:22.873Z,8.07
2022-12-06T15:31:54.212Z,7.78
2022-12-06T15:34:28.007Z,7.18
2022-12-06T15:37:29.878Z,7.45
2022-12-06T15:39:45.205Z,7.15
2022-12-06T15:42:20.823Z,7.43
2022-12-06T15:44:50.215Z,6.72
2022-12-06T15:47:19.835Z,7.25
2022-12-06T15:49:51.120Z,7.40
2022-12-06T15:52:23.198Z,6.93
2022-12-06T15:54:52.153Z,7.32
2022-12-06T15:57:22.038Z,7.28
2022-12-06T15:59:50.662Z,7.55
2022-12-06T16:02:19.685Z,7.13
2022-12-06T16:04:51.086Z,7.30
2022-12-06T16:07:19.855Z,7.15
2022-12-06T16:09:49.057Z,7.13
2022-12-06T16:12:17.674Z,7.40
2022-12-06T16:14:47.954Z,6.75
2022-12-06T16:17:16.511Z,7.25
2022-12-06T16:20:02.305Z,6.82
2022-12-06T16:22:48.156Z,7.72
2022-12-06T16:25:16.721Z,6.93
2022-12-06T16:27:45.289Z,7.03
2022-12-06T16:30:16.627Z,7.20
2022-12-06T16:32:45.087Z,6.97
2022-12-06T16:35:13.539Z,7.30
2022-12-06T16:37:41.991Z,7.47
2022-12-06T16:40:14.295Z,6.80
2022-12-06T16:42:42.839Z,7.03
2022-12-06T16:45:12.364Z,7.38
2022-12-06T16:47:42.255Z,7.22
2022-12-06T16:50:11.501Z,6.55
2022-12-06T16:55:38.609Z,7.07
2022-12-06T16:58:07.759Z,7.35
2022-12-06T17:00:36.378Z,7.35
2022-12-06T17:03:06.418Z,7.50
2022-12-06T17:05:35.230Z,7.15
2022-12-06T17:08:03.995Z,6.95
2022-12-06T17:10:32.772Z,6.88
2022-12-06T17:13:02.139Z,7.22
2022-12-06T17:15:30.755Z,6.93
2022-12-06T17:17:59.285Z,7.43
2022-12-06T17:20:29.267Z,7.18
2022-12-06T17:22:58.458Z,7.57
2022-12-06T17:25:26.937Z,6.95
2022-12-06T17:27:55.615Z,7.70
2022-12-06T17:30:24.179Z,7.68
2022-12-06T17:32:52.710Z,7.07
2022-12-06T17:35:21.238Z,7.45
2022-12-06T17:37:52.958Z,7.15
2022-12-06T17:40:21.683Z,7.13
2022-12-06T17:43:01.424Z,6.93
2022-12-06T17:45:30.150Z,7.43
2022-12-06T17:47:58.824Z,7.80
2022-12-06T17:50:27.588Z,7.55
2022-12-06T17:56:26.757Z,7.22
2022-12-06T17:58:55.976Z,7.57
2022-12-06T18:01:24.727Z,7.97
2022-12-06T18:03:53.759Z,6.95
2022-12-06T18:06:22.838Z,7.28
2022-12-06T18:08:51.466Z,6.93
2022-12-06T18:11:20.049Z,6.80
2022-12-06T18:13:50.153Z,6.90
2022-12-06T18:16:20.340Z,7.75
2022-12-06T18:18:50.183Z,7.80
2022-12-06T18:21:18.986Z,7.28
2022-12-06T18:24:13.082Z,7.43
2022-12-06T18:26:36.789Z,7.60
2022-12-06T18:29:07.753Z,7.13
2022-12-06T18:31:37.071Z,7.50
2022-12-06T18:34:05.878Z,7.25
2022-12-06T18:36:34.680Z,7.40
2022-12-06T18:39:07.358Z,7.15
2022-12-06T18:41:38.169Z,7.43
2022-12-06T18:44:08.308Z,7.50
2022-12-06T18:46:38.057Z,7.18
2022-12-06T18:49:06.832Z,7.00
2022-12-06T18:51:36.524Z,7.10
2022-12-06T18:54:05.522Z,7.45
2022-12-06T18:56:34.482Z,7.40
2022-12-06T18:59:05.483Z,8.93
2022-12-06T19:01:37.209Z,7.32
2022-12-06T19:04:06.618Z,7.18
2022-12-06T19:06:36.801Z,7.43
2022-12-06T19:09:09.544Z,7.15
2022-12-06T19:11:39.475Z,6.53
2022-12-06T19:14:08.634Z,7.10
2022-12-06T19:16:40.873Z,7.18
2022-12-06T19:19:16.119Z,7.28
2022-12-06T19:21:45.743Z,7.65
2022-12-06T19:24:16.765Z,7.65
2022-12-06T19:26:45.754Z,7.40
2022-12-06T19:29:14.727Z,7.30
2022-12-06T19:31:44.717Z,6.85
2022-12-06T19:34:17.435Z,7.03
2022-12-06T19:36:46.216Z,6.60
2022-12-06T19:39:15.139Z,7.20
2022-12-06T19:42:01.141Z,7.03
2022-12-06T19:44:30.484Z,7.10
2022-12-06T19:47:00.401Z,7.35
2022-12-06T19:49:29.416Z,7.38
2022-12-06T19:51:58.103Z,7.30
2022-12-06T19:54:28.117Z,7.35
2022-12-06T19:56:58.353Z,7.40
2022-12-06T19:59:31.424Z,7.22
2022-12-06T20:02:01.551Z,8.40
2022-12-06T20:04:31.566Z,7.32
2022-12-06T20:07:00.196Z,9.00
2022-12-06T20:09:30.911Z,7.35
2022-12-06T20:12:03.764Z,7.57
2022-12-06T20:14:36.878Z,7.68
2022-12-06T20:17:08.349Z,7.07
2022-12-06T20:19:37.407Z,7.43
2022-12-06T20:22:05.848Z,7.63
2022-12-06T20:24:34.667Z,7.55
2022-12-06T20:27:02.959Z,7.63
2022-12-06T20:29:32.781Z,7.50
2022-12-06T20:32:01.799Z,7.13
2022-12-06T20:34:34.565Z,7.30
2022-12-06T20:37:04.786Z,7.05
2022-12-06T20:39:35.517Z,7.13
2022-12-06T20:42:06.042Z,7.53
2022-12-06T20:44:35.009Z,7.50
2022-12-06T20:47:03.699Z,7.38
2022-12-06T20:49:33.752Z,7.35
2022-12-06T20:52:03.731Z,6.95
2022-12-06T20:54:32.343Z,6.57
2022-12-06T20:57:02.067Z,7.55
2022-12-06T20:59:30.541Z,7.15
2022-12-06T21:01:59.150Z,6.72
2022-12-06T21:04:28.086Z,7.45
2022-12-06T21:06:58.367Z,7.32
2022-12-06T21:09:27.258Z,7.40
2022-12-06T21:11:58.033Z,7.95
2022-12-06T21:14:26.620Z,7.38
2022-12-06T21:16:55.636Z,7.15
2022-12-06T21:19:24.588Z,6.65
2022-12-06T21:21:57.265Z,7.32
2022-12-06T21:24:27.388Z,6.90
2022-12-06T21:26:56.196Z,7.25
2022-12-06T21:29:30.869Z,7.07
2022-12-06T21:32:02.286Z,7.10
2022-12-06T21:34:30.983Z,6.80
2022-12-06T21:36:59.972Z,7.45
2022-12-06T21:39:29.943Z,7.00
2022-12-06T21:41:58.675Z,7.00
2022-12-06T21:44:27.524Z,6.53
2022-12-06T21:46:56.181Z,6.57
2022-12-06T21:49:25.015Z,11.63
2022-12-06T21:52:00.340Z,9.15
2022-12-06T21:54:33.261Z,7.63
2022-12-06T21:57:02.041Z,7.43
2022-12-06T21:59:30.765Z,7.80
2022-12-06T22:01:59.543Z,8.52
2022-12-06T22:04:28.196Z,8.25
2022-12-06T22:06:57.331Z,8.65
2022-12-06T22:09:25.927Z,8.32
2022-12-06T22:11:56.000Z,8.75
2022-12-06T22:14:24.555Z,8.10
2022-12-06T22:16:53.162Z,8.95
2022-12-06T22:19:21.850Z,10.85
2022-12-06T22:21:50.430Z,9.45
2022-12-06T22:24:18.874Z,8.98
2022-12-06T22:26:47.595Z,9.25
2022-12-06T22:29:17.408Z,9.25
2022-12-06T22:31:46.209Z,8.13
2022-12-06T22:34:14.771Z,8.30
2022-12-06T22:36:43.286Z,8.80
2022-12-06T22:39:12.011Z,8.57
2022-12-06T22:41:40.589Z,8.82
2022-12-06T22:44:09.118Z,8.45
2022-12-06T22:46:39.269Z,8.38
2022-12-06T22:49:07.924Z,7.85
2022-12-06T22:51:37.976Z,7.95
2022-12-06T22:54:07.956Z,8.02
2022-12-06T22:56:36.667Z,7.68
2022-12-06T22:59:05.133Z,7.93
2022-12-06T23:01:35.372Z,7.47
2022-12-06T23:04:06.922Z,7.32
2022-12-06T23:06:36.152Z,8.43
2022-12-06T23:09:07.825Z,7.88
2022-12-06T23:11:37.329Z,7.78
2022-12-06T23:14:07.759Z,8.32
2022-12-06T23:16:36.603Z,8.13
2022-12-06T23:19:06.713Z,7.57
2022-12-06T23:21:36.285Z,7.18
2022-12-06T23:24:07.694Z,7.13
2022-12-06T23:26:37.762Z,7.13
2022-12-06T23:29:06.741Z,7.32
2022-12-06T23:31:36.755Z,7.30
2022-12-06T23:34:07.988Z,6.97
2022-12-06T23:36:37.156Z,7.40
2022-12-06T23:39:06.480Z,6.72
2022-12-06T23:41:37.267Z,7.03
2022-12-06T23:44:06.366Z,7.38
2022-12-06T23:46:36.869Z,6.68
2022-12-06T23:49:07.388Z,7.40
2022-12-06T23:51:37.221Z,7.30
2022-12-06T23:54:07.525Z,7.32
2022-12-06T23:56:37.376Z,7.38
2022-12-06T23:59:06.889Z,7.18
